BOE1Z EDDF-EGLL
Flight info
| Callsign | BOE1Z |
|---|---|
| Flight time | N/A |
| Altitude | 26000 |
| Route | ULKIG4L/18 ULKIG Y180 BITBU Y181 DEMUL M624 BUB L608 DENUT L610 LAM LOGAN |
| Aircraft | B744/H-SDE3FGHIM1M2RWXY/LB1 |
Departure
| Time | N/A |
|---|---|
| Airport | Frankfurt Main Airport (EDDF) |
Arrival
| Time | 2026-05-03 20:20 |
|---|---|
| Airport | London Heathrow Airport (EGLL) |
| Time | Latitude | Longitude | Altitude | Speed | Heading |
|---|---|---|---|---|---|
| 2026-05-03 20:15 | 51.51947 | -0.08819 | 5194 ft | 191 kts | 230° |
| 2026-05-03 20:15 | 51.51099 | -0.10425 | 4787 ft | 189 kts | 230° |
| 2026-05-03 20:15 | 51.50258 | -0.12027 | 4346 ft | 189 kts | 231° |
| 2026-05-03 20:15 | 51.49420 | -0.13617 | 3904 ft | 189 kts | 231° |
| 2026-05-03 20:16 | 51.48589 | -0.15227 | 3470 ft | 188 kts | 236° |
| 2026-05-03 20:16 | 51.48162 | -0.17167 | 2962 ft | 185 kts | 265° |
| 2026-05-03 20:16 | 51.48082 | -0.19127 | 2756 ft | 170 kts | 265° |
| 2026-05-03 20:16 | 51.47960 | -0.20956 | 2690 ft | 164 kts | 264° |
| 2026-05-03 20:17 | 51.47853 | -0.22807 | 2770 ft | 169 kts | 265° |
| 2026-05-03 20:17 | 51.47801 | -0.24739 | 2648 ft | 175 kts | 270° |
| 2026-05-03 20:17 | 51.47803 | -0.26642 | 2360 ft | 168 kts | 270° |
| 2026-05-03 20:17 | 51.47790 | -0.28466 | 2118 ft | 163 kts | 270° |
| 2026-05-03 20:18 | 51.47788 | -0.30291 | 1876 ft | 161 kts | 270° |
| 2026-05-03 20:18 | 51.47785 | -0.32055 | 1654 ft | 157 kts | 270° |
| 2026-05-03 20:18 | 51.47777 | -0.33786 | 1347 ft | 152 kts | 270° |
| 2026-05-03 20:18 | 51.47789 | -0.35455 | 967 ft | 148 kts | 270° |
| 2026-05-03 20:19 | 51.47790 | -0.37036 | 679 ft | 141 kts | 269° |
| 2026-05-03 20:19 | 51.47781 | -0.38628 | 516 ft | 147 kts | 269° |
| 2026-05-03 20:19 | 51.47762 | -0.40254 | 418 ft | 148 kts | 268° |
| 2026-05-03 20:19 | 51.47765 | -0.41932 | 293 ft | 146 kts | 270° |
| 2026-05-03 20:20 | 51.47757 | -0.43531 | 114 ft | 138 kts | 269° |
| 2026-05-03 20:20 | 51.47755 | -0.44947 | 95 ft | 110 kts | 272° |
| 2026-05-03 20:20 | 51.47755 | -0.45694 | 87 ft | 31 kts | 263° |
| 2026-05-03 20:20 | 51.47674 | -0.45934 | 85 ft | 15 kts | 224° |
| 2026-05-03 20:21 | 51.47631 | -0.45997 | 86 ft | 1 kts | 218° |
| 2026-05-03 20:21 | 51.47619 | -0.46013 | 86 ft | 0 kts | 218° |
| 2026-05-03 20:22 | 51.47602 | -0.46033 | 86 ft | 10 kts | 218° |
| 2026-05-03 20:22 | 51.47545 | -0.46106 | 86 ft | 10 kts | 219° |
| 2026-05-03 20:22 | 51.47517 | -0.46161 | 85 ft | 12 kts | 252° |
| 2026-05-03 20:22 | 51.47516 | -0.46276 | 85 ft | 9 kts | 271° |
| 2026-05-03 20:23 | 51.47516 | -0.46432 | 85 ft | 9 kts | 270° |
| 2026-05-03 20:23 | 51.47517 | -0.46503 | 85 ft | 5 kts | 270° |
| 2026-05-03 20:23 | 51.47517 | -0.46539 | 85 ft | 0 kts | 270° |
| 2026-05-03 20:23 | 51.47517 | -0.46552 | 85 ft | 5 kts | 270° |
| 2026-05-03 20:24 | 51.47516 | -0.46641 | 85 ft | 8 kts | 268° |
| 2026-05-03 20:24 | 51.47504 | -0.46764 | 85 ft | 17 kts | 259° |
| 2026-05-03 20:24 | 51.47431 | -0.46905 | 83 ft | 17 kts | 181° |
| 2026-05-03 20:24 | 51.47329 | -0.46887 | 83 ft | 12 kts | 174° |
| 2026-05-03 20:25 | 51.47246 | -0.46872 | 82 ft | 11 kts | 174° |
| 2026-05-03 20:25 | 51.47176 | -0.46865 | 82 ft | 9 kts | 179° |
| 2026-05-03 20:25 | 51.47137 | -0.46865 | 82 ft | 9 kts | 180° |
| 2026-05-03 20:25 | 51.47081 | -0.46865 | 82 ft | 5 kts | 181° |
| 2026-05-03 20:26 | 51.47022 | -0.46868 | 82 ft | 8 kts | 194° |
| 2026-05-03 20:26 | 51.46995 | -0.46913 | 83 ft | 3 kts | 243° |
| 2026-05-03 20:26 | 51.46992 | -0.46930 | 83 ft | 0 kts | 264° |
| 2026-05-03 20:26 | 51.46991 | -0.46935 | 84 ft | 4 kts | 258° |
| 2026-05-03 20:27 | 51.46988 | -0.46981 | 84 ft | 10 kts | 266° |
| 2026-05-03 20:27 | 51.46987 | -0.47002 | 85 ft | 1 kts | 269° |
| 2026-05-03 20:27 | 51.46987 | -0.47007 | 85 ft | 0 kts | 269° |